Time;durP1;ratioP1;P1;durP2;ratioP2;P2;SDS_P1;SDS_P2;PMS_P1;PMS_P2;Temp;Humidity;BMP_temperature;BMP_pressure;BME280_temperature;BME280_humidity;BME280_pressure;Samples;Min_cycle;Max_cycle;Signal;HPM_P1;HPM_P2
2024/03/07 00:00:07;;;;;;;43.65;29.83;;;;;;;5.71;85.06;100992.78;2492923;28;20043;-76
2024/03/07 00:01:20;;;;;;;49.83;28.05;;;;;;;5.70;85.20;100986.72;2499897;28;20051;-77
2024/03/07 00:02:36;;;;;;;52.85;28.88;;;;;;;5.68;85.28;100994.47;2495736;28;20047;-76
2024/03/07 00:03:50;;;;;;;48.30;29.63;;;;;;;5.67;85.11;100991.84;2494459;28;20058;-76
2024/03/07 00:05:05;;;;;;;53.85;29.92;;;;;;;5.65;85.38;100989.25;2500125;28;20066;-77
2024/03/07 00:06:20;;;;;;;49.28;28.95;;;;;;;5.63;85.08;100990.94;2499251;28;20046;-76
2024/03/07 00:07:35;;;;;;;52.33;30.25;;;;;;;5.63;85.16;100995.25;2495070;28;20043;-76
2024/03/07 00:08:48;;;;;;;54.83;32.55;;;;;;;5.61;85.34;100992.63;2494878;28;20051;-76
2024/03/07 00:10:06;;;;;;;60.33;31.90;;;;;;;5.60;85.31;100983.13;2503429;28;20046;-76
2024/03/07 00:11:21;;;;;;;56.40;31.90;;;;;;;5.60;85.14;100990.00;2497508;28;20058;-76
2024/03/07 00:12:36;;;;;;;63.05;34.45;;;;;;;5.58;85.25;100992.56;2493639;28;20047;-76
2024/03/07 00:13:50;;;;;;;57.88;30.90;;;;;;;5.59;85.26;100988.25;2501297;28;20042;-76
2024/03/07 00:15:05;;;;;;;58.40;32.55;;;;;;;5.58;85.18;100987.41;2493315;28;20061;-76
2024/03/07 00:16:18;;;;;;;62.30;34.85;;;;;;;5.58;85.16;100984.81;2492654;28;20054;-76
2024/03/07 00:17:32;;;;;;;59.83;36.63;;;;;;;5.57;85.30;100985.63;2493333;28;20424;-76
2024/03/07 00:18:46;;;;;;;55.25;33.80;;;;;;;5.57;85.44;100989.94;2492404;28;20062;-76
2024/03/07 00:20:00;;;;;;;59.47;36.10;;;;;;;5.58;85.33;100986.53;2492953;28;20047;-76
2024/03/07 00:21:14;;;;;;;57.63;33.80;;;;;;;5.58;85.40;100994.31;2493224;28;20055;-76
2024/03/07 00:22:29;;;;;;;61.20;32.72;;;;;;;5.58;85.37;100992.56;2493559;28;20416;-76
2024/03/07 00:23:43;;;;;;;60.88;31.52;;;;;;;5.59;85.51;100993.44;2501011;28;20045;-76
2024/03/07 00:24:59;;;;;;;57.58;30.23;;;;;;;5.58;85.40;100990.00;2495778;28;20058;-76
2024/03/07 00:26:12;;;;;;;53.35;30.02;;;;;;;5.56;85.17;100999.44;2498280;28;20082;-76
2024/03/07 00:27:28;;;;;;;54.45;29.10;;;;;;;5.53;85.29;100994.22;2499039;28;20046;-75
2024/03/07 00:28:42;;;;;;;53.78;30.20;;;;;;;5.52;85.18;100994.19;2494406;28;20085;-75
2024/03/07 00:29:57;;;;;;;60.03;30.55;;;;;;;5.50;85.07;100993.28;2493267;28;20148;-76
2024/03/07 00:31:10;;;;;;;48.03;27.85;;;;;;;5.47;85.16;100996.69;2493264;28;20130;-76
2024/03/07 00:32:27;;;;;;;54.90;28.83;;;;;;;5.44;85.24;100994.03;2492744;28;20046;-76
2024/03/07 00:33:40;;;;;;;55.50;31.52;;;;;;;5.43;85.28;100992.31;2492841;28;20047;-76
2024/03/07 00:34:53;;;;;;;51.13;28.98;;;;;;;5.43;85.10;100984.53;2492686;28;20142;-76
2024/03/07 00:36:08;;;;;;;60.60;33.88;;;;;;;5.43;85.23;100987.13;2492189;28;20174;-75
2024/03/07 00:37:21;;;;;;;55.30;31.65;;;;;;;5.42;85.31;100991.44;2493222;28;20051;-75
2024/03/07 00:38:36;;;;;;;61.35;31.42;;;;;;;5.43;85.53;100982.81;2493271;28;20506;-76
2024/03/07 00:39:49;;;;;;;52.63;29.98;;;;;;;5.42;85.28;100986.25;2492580;28;20506;-76
2024/03/07 00:41:04;;;;;;;56.10;33.75;;;;;;;5.43;85.40;100985.41;2492950;28;20051;-76
2024/03/07 00:42:17;;;;;;;67.40;33.53;;;;;;;5.44;85.47;100984.56;2498276;28;20058;-76
2024/03/07 00:43:33;;;;;;;65.97;33.80;;;;;;;5.44;85.57;100988.88;2495353;28;20424;-76
2024/03/07 00:44:47;;;;;;;58.13;34.25;;;;;;;5.45;85.41;100982.88;2494109;28;20051;-76
2024/03/07 00:46:01;;;;;;;65.65;35.92;;;;;;;5.45;85.58;100975.97;2499637;28;20061;-75
2024/03/07 00:47:14;;;;;;;61.25;35.03;;;;;;;5.45;85.49;100986.31;2493077;28;20512;-76
2024/03/07 00:48:29;;;;;;;57.97;36.70;;;;;;;5.46;85.40;100988.03;2498943;28;20043;-76
2024/03/07 00:49:43;;;;;;;57.42;34.65;;;;;;;5.48;85.45;100990.69;2494179;28;20051;-76
2024/03/07 00:50:56;;;;;;;65.68;34.78;;;;;;;5.49;85.65;100983.78;2492894;28;20057;-76
2024/03/07 00:52:11;;;;;;;56.55;34.10;;;;;;;5.51;85.76;100987.28;2492429;28;20385;-75
2024/03/07 00:53:24;;;;;;;60.58;36.35;;;;;;;5.51;85.65;100987.28;2493162;28;20054;-76
2024/03/07 00:54:39;;;;;;;64.38;36.58;;;;;;;5.51;85.41;100980.38;2492489;28;20070;-76
2024/03/07 00:55:53;;;;;;;70.25;37.55;;;;;;;5.51;85.53;100982.97;2493496;28;20510;-76
2024/03/07 00:57:08;;;;;;;67.28;35.97;;;;;;;5.52;85.75;100989.00;2502528;28;20046;-76
2024/03/07 00:58:22;;;;;;;69.28;38.25;;;;;;;5.51;85.69;100982.97;2497161;28;20508;-75
2024/03/07 00:59:37;;;;;;;64.82;37.97;;;;;;;5.50;85.69;100981.22;2499875;28;20097;-76
2024/03/07 01:00:51;;;;;;;62.20;35.90;;;;;;;5.50;85.57;100981.22;2501018;28;20117;-76
2024/03/07 01:02:07;;;;;;;63.65;37.10;;;;;;;5.50;85.65;100978.63;2492933;28;20048;-76
2024/03/07 01:03:20;;;;;;;64.03;36.67;;;;;;;5.50;85.56;100976.06;2492534;28;20150;-76
2024/03/07 01:04:34;;;;;;;71.75;39.45;;;;;;;5.51;85.62;100971.75;2492796;28;20048;-76
2024/03/07 01:05:48;;;;;;;76.28;42.03;;;;;;;5.51;85.61;100971.75;2500776;28;20055;-76
2024/03/07 01:07:03;;;;;;;75.25;42.58;;;;;;;5.51;85.66;100982.09;2492518;28;20051;-76
2024/03/07 01:08:16;;;;;;;78.40;40.97;;;;;;;5.51;85.74;100975.19;2497152;28;20039;-76
2024/03/07 01:09:31;;;;;;;76.22;45.00;;;;;;;5.53;85.61;100976.09;2495979;28;20127;-76
2024/03/07 01:10:44;;;;;;;81.45;42.10;;;;;;;5.52;85.79;100971.75;2492654;28;20055;-75
2024/03/07 01:11:59;;;;;;;78.55;43.03;;;;;;;5.53;85.65;100972.63;2492372;28;20446;-76
2024/03/07 01:13:19;;;;;;;90.07;47.17;;;;;;;5.54;85.69;100969.19;2492766;28;20413;-76
2024/03/07 01:14:33;;;;;;;83.55;46.75;;;;;;;5.55;85.70;100969.22;2492884;28;20073;-76
2024/03/07 01:15:48;;;;;;;80.75;45.10;;;;;;;5.57;85.74;100970.09;2492102;28;20047;-76
2024/03/07 01:17:03;;;;;;;82.28;47.70;;;;;;;5.59;85.71;100967.56;2492630;28;20070;-76
2024/03/07 01:18:16;;;;;;;85.88;46.92;;;;;;;5.60;85.64;100966.69;2492525;28;20054;-76
2024/03/07 01:19:32;;;;;;;89.80;49.40;;;;;;;5.61;85.67;100966.72;2492011;28;20043;-76
2024/03/07 01:20:46;;;;;;;84.80;47.35;;;;;;;5.61;85.47;100966.72;2492717;28;20058;-76
2024/03/07 01:22:00;;;;;;;84.90;49.75;;;;;;;5.61;85.51;100964.16;2492851;28;20051;-76
2024/03/07 01:23:14;;;;;;;90.50;46.65;;;;;;;5.61;85.59;100971.03;2492453;28;20131;-76
2024/03/07 01:24:28;;;;;;;81.50;44.88;;;;;;;5.60;85.54;100970.19;2492313;28;20047;-76
2024/03/07 01:25:42;;;;;;;82.80;47.20;;;;;;;5.60;85.70;100970.19;2492494;28;20047;-76
2024/03/07 01:26:56;;;;;;;76.97;45.45;;;;;;;5.58;85.64;100961.50;2492697;28;20134;-76
2024/03/07 01:28:12;;;;;;;80.97;43.88;;;;;;;5.59;85.54;100968.41;2492321;28;20070;-75
2024/03/07 01:29:26;;;;;;;91.28;46.53;;;;;;;5.59;85.40;100971.00;2492301;28;20055;-75
2024/03/07 01:30:40;;;;;;;74.15;46.05;;;;;;;5.57;85.65;100962.34;2491479;28;20043;-75
2024/03/07 01:31:56;;;;;;;76.03;48.42;;;;;;;5.57;85.76;100967.50;2498396;28;20149;-75
2024/03/07 01:33:09;;;;;;;74.88;47.28;;;;;;;5.57;85.57;100958.88;2492071;28;20059;-75
2024/03/07 01:34:24;;;;;;;87.43;47.00;;;;;;;5.56;85.51;100968.38;2497853;28;20043;-75
2024/03/07 01:35:37;;;;;;;78.35;45.17;;;;;;;5.55;85.45;100955.38;2501773;28;20061;-75
2024/03/07 01:36:52;;;;;;;69.65;40.08;;;;;;;5.55;85.44;100963.16;2493178;28;20424;-75
2024/03/07 01:38:05;;;;;;;74.65;43.95;;;;;;;5.56;85.54;100962.34;2495348;28;20058;-75
2024/03/07 01:39:19;;;;;;;67.05;43.88;;;;;;;5.53;85.53;100955.38;2502460;28;20408;-75
2024/03/07 01:40:33;;;;;;;65.10;41.05;;;;;;;5.52;85.12;100961.38;2501843;28;20505;-75
2024/03/07 01:41:47;;;;;;;69.38;42.83;;;;;;;5.52;85.22;100957.94;2501513;28;20055;-75
2024/03/07 01:43:01;;;;;;;68.32;41.33;;;;;;;5.51;85.06;100954.47;2492642;28;20051;-75
2024/03/07 01:44:15;;;;;;;71.07;41.30;;;;;;;5.51;85.25;100954.47;2496114;28;20061;-75
2024/03/07 01:45:29;;;;;;;68.40;42.90;;;;;;;5.50;85.04;100959.63;2496168;28;20520;-76
2024/03/07 01:46:43;;;;;;;60.95;40.22;;;;;;;5.49;85.19;100955.31;2493168;28;20130;-76
2024/03/07 01:47:59;;;;;;;55.60;37.63;;;;;;;5.46;85.09;100954.41;2486351;28;20103;-76
2024/03/07 01:49:13;;;;;;;61.83;40.13;;;;;;;5.45;84.90;100946.63;2498534;28;20548;-75
2024/03/07 01:50:27;;;;;;;62.83;39.70;;;;;;;5.44;84.79;100947.44;2493142;28;20047;-75
2024/03/07 01:51:42;;;;;;;62.88;38.30;;;;;;;5.43;84.69;100950.91;2492661;28;20094;-75
2024/03/07 01:52:56;;;;;;;64.18;42.85;;;;;;;5.42;84.45;100949.13;2494687;28;20492;-75
2024/03/07 01:54:11;;;;;;;59.10;40.15;;;;;;;5.40;84.48;100948.25;2502623;28;20051;-75
2024/03/07 01:55:24;;;;;;;61.63;38.25;;;;;;;5.39;84.44;100949.94;2502189;28;20046;-75
2024/03/07 01:56:40;;;;;;;63.72;40.15;;;;;;;5.37;84.54;100949.06;2495517;28;20059;-76
2024/03/07 01:57:57;;;;;;;61.13;41.40;;;;;;;5.36;84.34;100949.91;2492992;28;20063;-75
2024/03/07 01:59:11;;;;;;;56.53;38.67;;;;;;;5.35;84.29;100949.91;2493297;29;20053;-75
2024/03/07 02:00:25;;;;;;;54.80;38.63;;;;;;;5.35;84.23;100943.00;2492750;28;20047;-75
2024/03/07 02:01:39;;;;;;;65.93;39.65;;;;;;;5.35;84.13;100949.91;2492924;28;20053;-76
2024/03/07 02:02:53;;;;;;;62.30;38.28;;;;;;;5.34;84.07;100945.53;2494088;28;20520;-76
2024/03/07 02:04:09;;;;;;;54.28;35.90;;;;;;;5.34;84.06;100940.38;2498818;28;20049;-76
2024/03/07 02:05:23;;;;;;;58.53;39.30;;;;;;;5.33;83.98;100934.31;2493272;28;20497;-76
2024/03/07 02:06:38;;;;;;;56.42;38.38;;;;;;;5.34;83.83;100933.47;2492739;28;20126;-76
2024/03/07 02:07:51;;;;;;;53.85;36.95;;;;;;;5.33;83.73;100938.63;2493059;28;20043;-76
2024/03/07 02:09:06;;;;;;;53.90;37.50;;;;;;;5.33;83.59;100936.91;2494033;29;20051;-76
2024/03/07 02:10:20;;;;;;;52.13;36.40;;;;;;;5.33;83.45;100936.06;2499037;28;20051;-76
2024/03/07 02:11:34;;;;;;;56.38;38.47;;;;;;;5.32;83.43;100932.59;2503059;28;20046;-76
2024/03/07 02:12:48;;;;;;;53.30;35.88;;;;;;;5.31;83.38;100935.16;2494906;28;20058;-76
2024/03/07 02:14:02;;;;;;;61.75;41.50;;;;;;;5.31;83.37;100932.56;2494050;28;20051;-76
2024/03/07 02:15:16;;;;;;;52.92;37.58;;;;;;;5.30;83.26;100934.28;2498172;28;20042;-76
2024/03/07 02:16:31;;;;;;;60.63;38.95;;;;;;;5.31;82.92;100932.56;2496885;28;20050;-76
2024/03/07 02:17:45;;;;;;;55.03;36.22;;;;;;;5.31;82.95;100940.31;2493836;28;20059;-76
2024/03/07 02:19:00;;;;;;;56.80;36.58;;;;;;;5.31;82.93;100941.19;2493812;28;20054;-77
2024/03/07 02:20:15;;;;;;;54.25;37.72;;;;;;;5.31;82.99;100929.97;2493295;28;20179;-76
2024/03/07 02:21:32;;;;;;;55.38;40.25;;;;;;;5.32;82.73;100929.13;2493725;28;20058;-77
2024/03/07 02:22:46;;;;;;;49.40;36.58;;;;;;;5.31;82.44;100929.97;2501682;28;20081;-77
2024/03/07 02:24:00;;;;;;;50.13;35.40;;;;;;;5.31;82.38;100929.97;2495430;28;20509;-76
2024/03/07 02:25:13;;;;;;;60.88;40.85;;;;;;;5.30;82.44;100931.69;2500292;28;20446;-77
2024/03/07 02:26:28;;;;;;;56.13;36.78;;;;;;;5.30;82.44;100929.09;2493522;28;20047;-77
2024/03/07 02:27:41;;;;;;;60.55;41.40;;;;;;;5.30;82.21;100931.69;2492889;28;20370;-77
2024/03/07 02:28:56;;;;;;;50.72;36.67;;;;;;;5.28;82.08;100933.38;2494179;28;20047;-77
2024/03/07 02:30:12;;;;;;;53.92;37.65;;;;;;;5.26;81.86;100929.88;2492487;28;20050;-77
2024/03/07 02:31:34;;;;;;;55.47;40.08;;;;;;;5.24;82.08;100929.88;2493585;28;20058;-77
2024/03/07 02:32:51;;;;;;;60.97;38.63;;;;;;;5.21;81.89;100927.25;2493998;28;20086;-76
2024/03/07 02:34:07;;;;;;;50.85;35.70;;;;;;;5.20;81.95;100927.19;2494151;28;20051;-77
2024/03/07 02:35:20;;;;;;;55.88;38.10;;;;;;;5.18;81.65;100924.56;2498557;28;20074;-76
2024/03/07 02:36:36;;;;;;;57.42;36.20;;;;;;;5.16;81.96;100925.38;2497409;28;20051;-76
2024/03/07 02:37:50;;;;;;;52.58;34.50;;;;;;;5.15;81.90;100923.66;2502168;28;20101;-77
2024/03/07 02:39:06;;;;;;;59.05;34.97;;;;;;;5.13;81.87;100926.22;2496453;28;20221;-77
2024/03/07 02:40:19;;;;;;;55.00;36.65;;;;;;;5.13;81.69;100920.16;2498902;28;20047;-76
2024/03/07 02:41:34;;;;;;;53.92;38.13;;;;;;;5.11;81.71;100922.75;2494385;28;20047;-77
2024/03/07 02:42:48;;;;;;;55.88;39.33;;;;;;;5.11;81.75;100924.44;2494014;28;20134;-76
2024/03/07 02:44:03;;;;;;;51.50;34.55;;;;;;;5.11;81.85;100917.56;2493612;28;20054;-76
2024/03/07 02:45:17;;;;;;;59.88;36.88;;;;;;;5.12;81.82;100913.25;2498004;28;20050;-76
2024/03/07 02:46:32;;;;;;;52.45;38.67;;;;;;;5.10;81.63;100905.47;2497910;28;20043;-77
2024/03/07 02:47:45;;;;;;;53.03;36.33;;;;;;;5.11;81.59;100921.84;2493765;28;20505;-76
2024/03/07 02:48:59;;;;;;;54.03;36.53;;;;;;;5.09;81.43;100916.66;2493856;28;20052;-76
2024/03/07 02:50:14;;;;;;;59.92;40.40;;;;;;;5.09;81.45;100915.81;2494112;28;20082;-77
2024/03/07 02:51:28;;;;;;;52.97;39.63;;;;;;;5.09;81.38;100918.38;2493685;28;20417;-76
2024/03/07 02:52:43;;;;;;;55.85;38.22;;;;;;;5.08;81.32;100922.66;2494305;28;20058;-76
2024/03/07 02:53:57;;;;;;;55.53;38.40;;;;;;;5.08;81.46;100920.06;2502227;28;20497;-76
2024/03/07 02:55:13;;;;;;;53.30;35.90;;;;;;;5.07;81.37;100918.34;2493748;28;20050;-76
2024/03/07 02:56:26;;;;;;;55.72;37.08;;;;;;;5.08;81.27;100912.31;2493332;28;20043;-76
2024/03/07 02:57:40;;;;;;;53.83;36.55;;;;;;;5.08;80.95;100909.72;2493906;28;20055;-76
2024/03/07 02:58:54;;;;;;;57.13;38.92;;;;;;;5.07;80.86;100914.91;2501797;28;20078;-76
2024/03/07 03:00:19;;;;;;;52.80;34.60;;;;;;;5.05;80.86;100916.56;2493605;28;20153;-76
2024/03/07 03:01:32;;;;;;;57.53;37.47;;;;;;;5.03;80.78;100912.25;2493893;28;20047;-77
2024/03/07 03:02:48;;;;;;;54.08;36.95;;;;;;;5.00;80.77;100907.00;2501513;28;20126;-76
2024/03/07 03:04:02;;;;;;;48.97;35.97;;;;;;;4.97;80.51;100901.78;2487758;28;20139;-76
2024/03/07 03:05:18;;;;;;;49.15;35.67;;;;;;;4.95;80.38;100907.78;2499734;28;20094;-76
2024/03/07 03:06:31;;;;;;;53.83;38.28;;;;;;;4.92;80.29;100903.41;2493745;28;20043;-76
2024/03/07 03:07:53;;;;;;;51.72;36.80;;;;;;;4.89;80.31;100900.78;2493344;28;20125;-76
2024/03/07 03:09:10;;;;;;;54.63;35.80;;;;;;;4.85;80.22;100896.38;2496564;28;20055;-76
2024/03/07 03:10:28;;;;;;;51.80;36.45;;;;;;;4.81;80.11;100899.75;2498578;28;20131;-76
2024/03/07 03:11:42;;;;;;;49.85;33.97;;;;;;;4.76;80.03;100894.50;2493444;28;20131;-76
2024/03/07 03:12:57;;;;;;;46.83;33.17;;;;;;;4.74;79.91;100905.66;2495023;28;20062;-76
2024/03/07 03:14:11;;;;;;;49.67;36.05;;;;;;;4.70;79.88;100901.25;2500340;28;20071;-76
2024/03/07 03:15:26;;;;;;;62.03;37.58;;;;;;;4.66;79.94;100896.88;2493330;28;20050;-76
2024/03/07 03:16:42;;;;;;;55.95;38.28;;;;;;;4.62;79.83;100895.97;2493812;28;20410;-76
2024/03/07 03:17:59;;;;;;;55.33;36.45;;;;;;;4.57;79.65;100895.00;2494827;28;20114;-76
2024/03/07 03:19:12;;;;;;;48.83;34.35;;;;;;;4.55;79.59;100900.13;2500209;28;20426;-76
2024/03/07 03:20:33;;;;;;;49.65;34.65;;;;;;;4.51;79.59;100903.47;2492939;28;20047;-76
2024/03/07 03:21:47;;;;;;;53.50;35.45;;;;;;;4.47;79.50;100901.69;2493942;28;20051;-76
2024/03/07 03:23:03;;;;;;;51.17;35.28;;;;;;;4.44;79.42;100900.75;2493925;28;20055;-76
2024/03/07 03:24:17;;;;;;;54.55;37.58;;;;;;;4.42;79.37;100902.44;2493243;28;20126;-76
2024/03/07 03:25:34;;;;;;;50.30;35.60;;;;;;;4.38;79.28;100899.78;2493745;28;20121;-76
2024/03/07 03:26:48;;;;;;;51.78;33.38;;;;;;;4.35;79.37;100899.72;2493728;28;20504;-76
2024/03/07 03:28:03;;;;;;;51.78;37.88;;;;;;;4.33;79.36;100901.38;2486223;28;20051;-76
2024/03/07 03:29:18;;;;;;;49.40;34.55;;;;;;;4.29;79.37;100896.16;2497670;28;20046;-77
2024/03/07 03:30:32;;;;;;;50.03;36.85;;;;;;;4.26;79.28;100893.47;2497667;28;20397;-77
2024/03/07 03:31:46;;;;;;;50.33;33.30;;;;;;;4.22;79.19;100895.13;2493302;28;20050;-76
2024/03/07 03:33:00;;;;;;;57.58;38.05;;;;;;;4.19;79.38;100897.66;2502968;28;20125;-76
2024/03/07 03:34:14;;;;;;;49.17;35.83;;;;;;;4.16;79.24;100900.19;2499851;28;20489;-75
2024/03/07 03:35:28;;;;;;;50.55;35.42;;;;;;;4.13;79.21;100890.66;2492998;28;20043;-76
2024/03/07 03:36:42;;;;;;;46.33;33.83;;;;;;;4.10;79.24;100895.72;2500519;28;20398;-76
2024/03/07 03:37:56;;;;;;;51.03;34.30;;;;;;;4.08;79.27;100897.44;2494818;28;20135;-76
2024/03/07 03:39:13;;;;;;;55.67;35.45;;;;;;;4.06;79.18;100896.53;2500408;28;20051;-76
2024/03/07 03:40:27;;;;;;;54.17;37.42;;;;;;;4.05;79.30;100886.16;2498068;28;20042;-76
2024/03/07 03:41:41;;;;;;;52.90;38.45;;;;;;;4.01;79.25;100894.69;2502990;28;20046;-76
2024/03/07 03:42:55;;;;;;;53.60;36.95;;;;;;;3.99;79.49;100891.19;2494511;28;20055;-76
2024/03/07 03:44:08;;;;;;;50.90;35.78;;;;;;;3.96;79.45;100886.84;2495704;28;20069;-76
2024/03/07 03:45:25;;;;;;;53.88;35.40;;;;;;;3.93;79.35;100890.22;2498817;28;20039;-76
2024/03/07 03:46:38;;;;;;;57.42;37.20;;;;;;;3.91;79.49;100888.44;2493512;29;20391;-76
2024/03/07 03:47:53;;;;;;;50.38;35.60;;;;;;;3.89;79.57;100879.78;2493420;28;20106;-76
2024/03/07 03:49:06;;;;;;;56.20;37.30;;;;;;;3.87;79.69;100887.50;2500865;28;20054;-75
2024/03/07 03:50:22;;;;;;;56.50;39.60;;;;;;;3.85;79.79;100885.75;2493392;28;20073;-76
2024/03/07 03:51:36;;;;;;;56.10;36.28;;;;;;;3.83;79.74;100880.53;2493106;28;20047;-76
2024/03/07 03:52:50;;;;;;;55.78;37.22;;;;;;;3.80;79.78;100875.31;2493494;29;20588;-76
2024/03/07 03:54:05;;;;;;;54.88;37.33;;;;;;;3.78;79.83;100882.13;2487478;28;20575;-76
2024/03/07 03:55:21;;;;;;;57.72;40.08;;;;;;;3.76;80.09;100882.94;2498762;28;20051;-75
2024/03/07 03:56:35;;;;;;;54.97;36.25;;;;;;;3.75;80.05;100889.81;2499216;28;20081;-76
2024/03/07 03:57:49;;;;;;;60.45;38.80;;;;;;;3.71;80.10;100894.00;2503138;28;20058;-75
2024/03/07 03:59:04;;;;;;;52.75;36.13;;;;;;;3.68;80.14;100895.66;2503192;28;20065;-76
2024/03/07 04:00:22;;;;;;;59.35;36.58;;;;;;;3.65;80.19;100885.28;2502568;28;20125;-76
2024/03/07 04:01:36;;;;;;;59.85;39.25;;;;;;;3.62;80.29;100891.22;2495806;28;20117;-76
2024/03/07 04:02:51;;;;;;;60.67;39.03;;;;;;;3.58;80.33;100889.41;2503165;28;20078;-76
2024/03/07 04:04:05;;;;;;;60.58;38.67;;;;;;;3.56;80.37;100887.63;2500869;28;20660;-76
2024/03/07 04:05:21;;;;;;;64.15;37.25;;;;;;;3.54;80.56;100897.03;2496859;28;20042;-76
2024/03/07 04:06:35;;;;;;;62.97;40.90;;;;;;;3.50;80.51;100894.38;2496921;28;20082;-76
2024/03/07 04:07:49;;;;;;;55.75;40.38;;;;;;;3.46;80.71;100887.41;2492628;28;20058;-76
2024/03/07 04:09:04;;;;;;;55.78;39.30;;;;;;;3.44;80.62;100893.38;2503081;28;20135;-76
2024/03/07 04:10:19;;;;;;;57.88;39.28;;;;;;;3.40;80.69;100889.84;2499373;28;20074;-76
2024/03/07 04:11:33;;;;;;;55.58;38.88;;;;;;;3.36;80.65;100888.03;2492975;28;20047;-76
2024/03/07 04:12:48;;;;;;;61.25;41.22;;;;;;;3.34;80.73;100899.16;2493416;28;20126;-76
2024/03/07 04:14:01;;;;;;;59.63;38.22;;;;;;;3.30;80.73;100887.84;2501139;28;20098;-76
2024/03/07 04:15:16;;;;;;;55.80;38.40;;;;;;;3.28;81.12;100889.56;2495808;28;20054;-76
2024/03/07 04:16:30;;;;;;;54.78;38.13;;;;;;;3.25;81.01;100892.94;2496972;28;20047;-76
2024/03/07 04:17:46;;;;;;;61.50;38.67;;;;;;;3.24;80.94;100892.88;2493344;28;20047;-76
2024/03/07 04:18:59;;;;;;;69.70;39.80;;;;;;;3.22;81.19;100900.56;2492980;28;20126;-76
2024/03/07 04:20:13;;;;;;;57.17;37.67;;;;;;;3.20;81.05;100898.78;2492769;28;20058;-75
2024/03/07 04:21:27;;;;;;;63.53;40.50;;;;;;;3.18;81.12;100895.31;2493174;28;20130;-76
2024/03/07 04:22:41;;;;;;;57.67;39.15;;;;;;;3.16;81.16;100894.41;2493335;28;20051;-76
2024/03/07 04:23:55;;;;;;;63.95;40.78;;;;;;;3.13;81.18;100894.31;2500641;28;20050;-76
2024/03/07 04:25:10;;;;;;;55.72;38.42;;;;;;;3.11;81.15;100885.66;2493088;28;20054;-76
2024/03/07 04:26:23;;;;;;;63.53;37.65;;;;;;;3.09;81.19;100892.50;2497303;28;20129;-77
2024/03/07 04:27:39;;;;;;;60.72;38.42;;;;;;;3.05;81.20;100891.56;2496803;28;20163;-76
2024/03/07 04:28:53;;;;;;;56.20;39.50;;;;;;;3.01;81.09;100890.56;2493634;28;20593;-76
2024/03/07 04:30:09;;;;;;;60.15;38.67;;;;;;;2.99;81.15;100883.63;2496045;28;20051;-76
2024/03/07 04:31:22;;;;;;;62.30;38.78;;;;;;;2.99;81.09;100887.09;2499130;28;20055;-76
2024/03/07 04:32:38;;;;;;;63.28;41.42;;;;;;;2.97;81.35;100882.72;2493545;28;20047;-76
2024/03/07 04:33:51;;;;;;;59.42;42.25;;;;;;;2.95;81.22;100893.00;2493077;28;20090;-76
2024/03/07 04:35:08;;;;;;;64.75;36.88;;;;;;;2.92;81.22;100885.19;2500967;28;20053;-76
2024/03/07 04:36:23;;;;;;;59.10;39.03;;;;;;;2.90;81.22;100881.72;2496534;28;20053;-76
2024/03/07 04:37:38;;;;;;;56.78;40.85;;;;;;;2.89;81.27;100881.66;2496885;28;20121;-77
2024/03/07 04:38:51;;;;;;;60.25;35.90;;;;;;;2.86;81.32;100879.00;2493058;28;20055;-76
2024/03/07 04:40:14;;;;;;;62.25;41.50;;;;;;;2.85;81.29;100883.28;2492725;28;20058;-76
2024/03/07 04:41:28;;;;;;;59.15;37.88;;;;;;;2.81;81.20;100884.94;2497780;28;20050;-76
2024/03/07 04:42:45;;;;;;;58.72;42.30;;;;;;;2.79;81.22;100883.13;2496342;28;20485;-76
2024/03/07 04:43:59;;;;;;;80.43;52.00;;;;;;;2.78;81.33;100881.38;2493508;28;20051;-76
2024/03/07 04:45:14;;;;;;;63.38;43.47;;;;;;;2.75;81.30;100882.16;2502923;28;20066;-77
2024/03/07 04:46:28;;;;;;;64.32;38.30;;;;;;;2.74;81.14;100879.56;2497955;28;20066;-76
2024/03/07 04:47:43;;;;;;;60.22;40.03;;;;;;;2.71;81.25;100877.78;2492639;28;20043;-76
2024/03/07 04:48:57;;;;;;;60.75;38.88;;;;;;;2.68;81.11;100876.81;2493107;28;20047;-76
2024/03/07 04:50:12;;;;;;;71.82;42.70;;;;;;;2.66;81.20;100876.78;2502497;28;20065;-76
2024/03/07 04:51:25;;;;;;;57.47;36.83;;;;;;;2.65;81.32;100871.56;2497831;28;20047;-76
2024/03/07 04:52:40;;;;;;;59.95;39.30;;;;;;;2.64;81.19;100882.72;2492869;28;20150;-76
2024/03/07 04:53:54;;;;;;;66.70;39.45;;;;;;;2.62;81.29;100878.38;2492175;28;20051;-76
2024/03/07 04:55:09;;;;;;;64.90;41.40;;;;;;;2.59;81.42;100880.00;2493019;28;20365;-76
2024/03/07 04:56:23;;;;;;;58.53;39.33;;;;;;;2.58;81.29;100878.25;2492114;28;20632;-76
2024/03/07 04:57:39;;;;;;;59.42;40.30;;;;;;;2.57;81.36;100874.81;2498641;28;20078;-76
2024/03/07 04:58:54;;;;;;;64.82;42.97;;;;;;;2.58;81.29;100878.25;2494849;28;20130;-77
2024/03/07 05:00:13;;;;;;;63.55;40.78;;;;;;;2.56;81.50;100888.53;2492351;28;20054;-76
2024/03/07 05:01:27;;;;;;;60.50;35.30;;;;;;;2.55;81.54;100880.75;2492900;28;20039;-76
2024/03/07 05:02:41;;;;;;;60.53;40.00;;;;;;;2.53;81.33;100882.41;2492976;28;20406;-76
2024/03/07 05:03:54;;;;;;;59.40;40.28;;;;;;;2.51;81.47;100884.09;2500360;28;20481;-76
2024/03/07 05:05:09;;;;;;;68.38;41.38;;;;;;;2.49;81.43;100889.19;2500647;28;20057;-76
2024/03/07 05:06:22;;;;;;;59.47;39.42;;;;;;;2.47;81.46;100889.97;2492617;28;20047;-76
2024/03/07 05:07:37;;;;;;;59.00;38.33;;;;;;;2.44;81.43;100883.03;2492341;28;20051;-76
2024/03/07 05:08:51;;;;;;;63.25;42.25;;;;;;;2.42;81.48;100882.09;2500280;28;20065;-76
2024/03/07 05:10:06;;;;;;;58.67;38.80;;;;;;;2.40;81.65;100882.09;2492905;28;20061;-76
2024/03/07 05:11:21;;;;;;;66.13;38.28;;;;;;;2.39;81.56;100882.03;2492284;28;20051;-76
2024/03/07 05:12:36;;;;;;;64.78;41.03;;;;;;;2.37;81.54;100879.41;2498198;28;20047;-76
2024/03/07 05:13:50;;;;;;;56.53;39.75;;;;;;;2.36;81.41;100881.94;2495134;28;20528;-76
2024/03/07 05:15:09;;;;;;;62.55;39.97;;;;;;;2.33;81.48;100879.28;2492595;28;20051;-76
2024/03/07 05:16:23;;;;;;;60.38;41.80;;;;;;;2.30;81.57;100886.94;2492213;28;21777;-76
2024/03/07 05:17:38;;;;;;;61.28;40.10;;;;;;;2.28;81.64;100880.88;2492936;28;20051;-76
2024/03/07 05:18:52;;;;;;;60.10;38.22;;;;;;;2.27;81.66;100881.66;2492768;28;20631;-76
2024/03/07 05:20:10;;;;;;;64.20;40.53;;;;;;;2.24;81.72;100879.00;2493663;28;20053;-76
2024/03/07 05:21:34;;;;;;;61.83;39.33;;;;;;;2.22;81.58;100886.72;2498638;28;20452;-76
2024/03/07 05:22:50;;;;;;;61.67;38.72;;;;;;;2.21;81.63;100884.06;2499848;28;20425;-76
2024/03/07 05:24:04;;;;;;;63.25;38.78;;;;;;;2.18;81.70;100880.59;2494287;28;20047;-76
2024/03/07 05:25:19;;;;;;;63.45;39.42;;;;;;;2.16;81.74;100884.81;2499293;28;20057;-76
2024/03/07 05:26:33;;;;;;;62.03;38.67;;;;;;;2.15;81.74;100880.50;2492249;28;20126;-76
2024/03/07 05:27:50;;;;;;;66.93;40.03;;;;;;;2.14;81.75;100886.50;2498910;28;20051;-76
2024/03/07 05:29:05;;;;;;;57.58;37.80;;;;;;;2.12;81.65;100893.28;2493142;28;20055;-76
2024/03/07 05:30:23;;;;;;;66.72;42.17;;;;;;;2.11;81.77;100886.38;2492414;29;20054;-76
2024/03/07 05:31:37;;;;;;;72.10;43.17;;;;;;;2.10;81.80;100891.50;2492075;28;20074;-76
2024/03/07 05:32:52;;;;;;;64.88;38.30;;;;;;;2.08;81.65;100888.88;2500157;28;20137;-75
2024/03/07 05:34:08;;;;;;;59.85;39.53;;;;;;;2.06;81.84;100885.38;2492934;28;20157;-76
2024/03/07 05:35:22;;;;;;;66.63;40.78;;;;;;;2.06;81.80;100882.78;2491833;28;20059;-76
2024/03/07 05:36:36;;;;;;;61.42;40.35;;;;;;;2.04;81.74;100889.63;2492532;28;20509;-75
2024/03/07 05:37:50;;;;;;;64.30;42.55;;;;;;;2.03;81.79;100887.84;2492615;28;20059;-75
2024/03/07 05:39:09;;;;;;;64.32;42.72;;;;;;;2.01;81.71;100883.50;2500518;28;20460;-75
2024/03/07 05:40:24;;;;;;;61.80;39.55;;;;;;;2.00;81.91;100887.78;2495871;28;20412;-76
2024/03/07 05:41:37;;;;;;;68.43;43.53;;;;;;;1.98;82.08;100878.25;2502232;28;20043;-76
2024/03/07 05:42:53;;;;;;;60.17;39.17;;;;;;;1.96;81.89;100889.38;2494997;28;20409;-75